createdAt,value
2022-07-28T00:00:53.610Z,2.05
2022-07-28T00:03:20.662Z,2.47
2022-07-28T00:05:47.654Z,2.20
2022-07-28T00:08:17.260Z,2.10
2022-07-28T00:10:44.146Z,2.05
2022-07-28T00:13:11.126Z,2.03
2022-07-28T00:15:38.139Z,1.95
2022-07-28T00:18:05.052Z,2.05
2022-07-28T00:20:31.974Z,1.40
2022-07-28T00:22:59.229Z,2.50
2022-07-28T00:25:26.207Z,1.95
2022-07-28T00:27:53.490Z,1.40
2022-07-28T00:30:20.626Z,1.85
2022-07-28T00:32:47.679Z,1.67
2022-07-28T00:35:15.036Z,1.77
2022-07-28T00:37:42.728Z,1.63
2022-07-28T00:40:10.208Z,1.63
2022-07-28T00:42:37.149Z,1.80
2022-07-28T00:45:04.670Z,1.67
2022-07-28T00:47:33.465Z,1.85
2022-07-28T00:50:01.737Z,1.90
2022-07-28T00:52:29.121Z,2.13
2022-07-28T00:54:58.156Z,2.10
2022-07-28T00:57:25.092Z,2.10
2022-07-28T00:59:52.032Z,2.00
2022-07-28T01:02:19.189Z,1.73
2022-07-28T01:04:46.525Z,1.92
2022-07-28T01:07:35.534Z,1.98
2022-07-28T01:10:23.126Z,2.30
2022-07-28T01:13:21.293Z,2.38
2022-07-28T01:16:04.322Z,2.22
2022-07-28T01:18:43.501Z,2.58
2022-07-28T01:21:13.753Z,2.55
2022-07-28T01:24:22.678Z,2.55
2022-07-28T01:27:01.089Z,2.40
2022-07-28T01:29:55.399Z,2.25
2022-07-28T01:32:31.556Z,2.65
2022-07-28T01:35:14.713Z,3.13
2022-07-28T01:37:47.398Z,2.40
2022-07-28T01:40:18.162Z,2.67
2022-07-28T01:42:51.421Z,2.55
2022-07-28T01:45:19.516Z,2.45
2022-07-28T01:47:48.147Z,2.25
2022-07-28T01:50:16.817Z,2.65
2022-07-28T01:52:44.871Z,2.63
2022-07-28T01:55:12.798Z,2.30
2022-07-28T01:57:41.287Z,3.50
2022-07-28T02:00:10.976Z,2.67
2022-07-28T02:02:38.368Z,3.03
2022-07-28T02:05:06.655Z,3.35
2022-07-28T02:07:34.300Z,2.90
2022-07-28T02:10:01.697Z,3.50
2022-07-28T02:12:29.798Z,2.80
2022-07-28T02:14:57.048Z,2.60
2022-07-28T02:17:32.146Z,3.42
2022-07-28T02:20:00.004Z,2.60
2022-07-28T02:22:27.572Z,3.00
2022-07-28T02:24:55.698Z,2.63
2022-07-28T02:27:24.123Z,3.00
2022-07-28T02:29:57.765Z,2.55
2022-07-28T02:32:53.852Z,2.92
2022-07-28T02:35:25.356Z,2.33
2022-07-28T02:38:03.076Z,3.00
2022-07-28T02:40:35.163Z,2.53
2022-07-28T02:43:03.506Z,2.45
2022-07-28T02:45:32.130Z,2.45
2022-07-28T02:48:03.677Z,2.97
2022-07-28T02:50:30.702Z,3.08
2022-07-28T02:53:00.041Z,2.75
2022-07-28T02:55:27.816Z,2.95
2022-07-28T02:57:56.945Z,3.40
2022-07-28T03:00:24.746Z,3.10
2022-07-28T03:02:53.693Z,2.90
2022-07-28T03:05:21.098Z,3.40
2022-07-28T03:07:52.734Z,3.50
2022-07-28T03:10:33.590Z,3.50
2022-07-28T03:13:03.091Z,3.70
2022-07-28T03:15:31.109Z,3.47
2022-07-28T03:17:59.319Z,3.17
2022-07-28T03:20:26.813Z,3.25
2022-07-28T03:22:53.716Z,3.13
2022-07-28T03:25:30.298Z,3.20
2022-07-28T03:27:58.435Z,3.47
2022-07-28T03:30:39.108Z,3.28
2022-07-28T03:33:06.192Z,3.38
2022-07-28T03:35:33.889Z,3.67
2022-07-28T03:38:02.688Z,3.13
2022-07-28T03:40:30.277Z,3.17
2022-07-28T03:42:57.969Z,3.60
2022-07-28T03:45:25.153Z,3.45
2022-07-28T03:47:54.016Z,3.25
2022-07-28T03:50:31.992Z,3.13
2022-07-28T03:52:59.767Z,3.75
2022-07-28T03:55:27.173Z,3.33
2022-07-28T03:57:54.099Z,4.00
2022-07-28T04:00:21.635Z,3.22
2022-07-28T04:02:48.782Z,3.08
2022-07-28T04:05:17.404Z,2.83
2022-07-28T04:07:46.184Z,3.17
2022-07-28T04:10:15.720Z,3.88
2022-07-28T04:12:52.810Z,2.97
2022-07-28T04:15:20.067Z,3.28
2022-07-28T04:17:49.228Z,3.88
2022-07-28T04:20:17.396Z,3.90
2022-07-28T04:22:45.523Z,3.67
2022-07-28T04:25:13.046Z,3.22
2022-07-28T04:27:41.479Z,3.05
2022-07-28T04:30:17.401Z,2.83
2022-07-28T04:32:45.252Z,2.80
2022-07-28T04:35:17.106Z,2.88
2022-07-28T04:37:44.940Z,3.38
2022-07-28T04:40:13.132Z,2.92
2022-07-28T04:42:40.368Z,2.92
2022-07-28T04:45:08.346Z,2.78
2022-07-28T04:47:35.416Z,2.95
2022-07-28T04:50:02.255Z,2.85
2022-07-28T04:52:29.113Z,3.42
2022-07-28T04:54:56.052Z,2.53
2022-07-28T04:57:22.971Z,3.35
2022-07-28T04:59:54.366Z,2.70
2022-07-28T05:02:23.681Z,3.20
2022-07-28T05:04:50.740Z,2.85
2022-07-28T05:07:17.656Z,2.78
2022-07-28T05:09:44.646Z,2.97
2022-07-28T05:12:11.621Z,2.97
2022-07-28T05:14:38.609Z,2.95
2022-07-28T05:17:05.549Z,2.97
2022-07-28T05:19:32.391Z,2.75
2022-07-28T05:21:59.339Z,3.00
2022-07-28T05:24:26.330Z,2.75
2022-07-28T05:26:53.185Z,2.78
2022-07-28T05:29:20.148Z,2.88
2022-07-28T05:31:47.156Z,3.50
2022-07-28T05:34:14.394Z,2.67
2022-07-28T05:36:41.682Z,2.58
2022-07-28T05:39:08.693Z,2.90
2022-07-28T05:41:35.569Z,2.80
2022-07-28T05:44:02.550Z,3.10
2022-07-28T05:46:29.396Z,2.60
2022-07-28T05:48:56.367Z,2.80
2022-07-28T05:51:23.309Z,3.05
2022-07-28T05:53:50.233Z,3.38
2022-07-28T05:56:17.063Z,2.50
2022-07-28T05:58:43.983Z,2.80
2022-07-28T06:01:10.878Z,2.67
2022-07-28T06:03:42.028Z,3.20
2022-07-28T06:06:15.828Z,2.78
2022-07-28T06:08:44.395Z,2.92
2022-07-28T06:11:21.883Z,2.53
2022-07-28T06:13:50.452Z,2.55
2022-07-28T06:16:17.486Z,2.47
2022-07-28T06:18:44.588Z,2.55
2022-07-28T06:21:11.454Z,3.25
2022-07-28T06:23:38.399Z,2.63
2022-07-28T06:26:05.263Z,2.97
2022-07-28T06:28:33.076Z,2.17
2022-07-28T06:31:02.858Z,2.47
2022-07-28T06:33:29.799Z,3.05
2022-07-28T06:35:57.150Z,3.15
2022-07-28T06:38:24.128Z,2.55
2022-07-28T06:40:51.011Z,2.63
2022-07-28T06:43:17.857Z,2.40
2022-07-28T06:45:45.844Z,2.25
2022-07-28T06:48:13.868Z,2.13
2022-07-28T06:50:42.067Z,2.47
2022-07-28T06:53:09.047Z,2.95
2022-07-28T06:55:37.770Z,2.03
2022-07-28T06:58:05.302Z,2.47
2022-07-28T07:00:32.675Z,2.33
2022-07-28T07:03:00.714Z,2.67
2022-07-28T07:05:32.059Z,2.35
2022-07-28T07:07:59.647Z,3.05
2022-07-28T07:10:26.598Z,2.17
2022-07-28T07:12:53.589Z,2.13
2022-07-28T07:15:20.430Z,1.95
2022-07-28T07:17:47.327Z,2.15
2022-07-28T07:20:14.373Z,2.38
2022-07-28T07:22:45.810Z,2.53
2022-07-28T07:25:14.823Z,2.40
2022-07-28T07:27:41.897Z,2.13
2022-07-28T07:30:10.169Z,1.88
2022-07-28T07:32:37.890Z,2.58
2022-07-28T07:35:05.621Z,1.83
2022-07-28T07:37:32.721Z,1.90
2022-07-28T07:40:05.495Z,1.90
2022-07-28T07:42:32.417Z,1.73
2022-07-28T07:44:59.532Z,1.88
2022-07-28T07:47:26.517Z,1.60
2022-07-28T07:49:53.434Z,1.55
2022-07-28T07:52:20.461Z,2.10
2022-07-28T07:54:47.531Z,1.80
2022-07-28T07:57:14.544Z,1.52
2022-07-28T07:59:41.806Z,1.63
2022-07-28T08:02:09.212Z,2.22
2022-07-28T08:04:37.520Z,1.50
2022-07-28T08:07:06.302Z,1.70
2022-07-28T08:09:33.867Z,1.40
2022-07-28T08:12:00.863Z,1.40
2022-07-28T08:14:27.822Z,2.00
2022-07-28T08:16:56.731Z,1.40
2022-07-28T08:19:24.062Z,2.20
2022-07-28T08:21:51.377Z,1.58
2022-07-28T08:24:32.834Z,2.05
2022-07-28T08:27:01.565Z,1.38
2022-07-28T08:29:28.419Z,1.35
2022-07-28T08:31:55.246Z,1.55
2022-07-28T08:34:26.281Z,1.25
2022-07-28T08:36:58.850Z,1.50
2022-07-28T08:39:25.799Z,1.52
2022-07-28T08:41:58.364Z,1.50
2022-07-28T08:44:29.077Z,1.83
2022-07-28T08:46:56.565Z,1.23
2022-07-28T08:49:23.767Z,1.75
2022-07-28T08:51:50.820Z,1.77
2022-07-28T08:54:21.773Z,1.55
2022-07-28T08:56:49.227Z,1.50
2022-07-28T08:59:16.856Z,1.63
2022-07-28T09:01:44.163Z,2.35
2022-07-28T09:04:11.408Z,1.40
2022-07-28T09:06:42.203Z,1.58
2022-07-28T09:09:09.976Z,1.85
2022-07-28T09:11:38.405Z,1.60
2022-07-28T09:14:06.467Z,1.13
2022-07-28T09:16:33.507Z,1.40
2022-07-28T09:19:00.410Z,1.52
2022-07-28T09:21:27.259Z,2.13
2022-07-28T09:23:54.463Z,1.67
2022-07-28T09:26:21.384Z,1.85
2022-07-28T09:28:58.920Z,1.65
2022-07-28T09:31:27.350Z,1.33
2022-07-28T09:33:54.448Z,1.80
2022-07-28T09:36:21.631Z,2.17
2022-07-28T09:38:48.575Z,1.35
2022-07-28T09:41:18.929Z,1.40
2022-07-28T09:43:49.830Z,1.80
2022-07-28T09:46:24.271Z,1.95
2022-07-28T09:49:01.066Z,1.70
2022-07-28T09:51:29.107Z,1.80
2022-07-28T09:54:22.785Z,1.63
2022-07-28T09:56:49.668Z,1.67
2022-07-28T09:59:18.970Z,1.25
2022-07-28T10:02:01.745Z,1.60
2022-07-28T10:04:37.623Z,1.50
2022-07-28T10:07:14.312Z,1.52
2022-07-28T10:09:41.926Z,1.00
2022-07-28T10:12:19.643Z,1.20
2022-07-28T10:14:48.047Z,1.40
2022-07-28T10:17:32.244Z,1.77
2022-07-28T10:20:00.869Z,1.20
2022-07-28T10:22:32.178Z,1.88
2022-07-28T10:25:01.819Z,1.40
2022-07-28T10:27:29.146Z,1.60
2022-07-28T10:29:59.862Z,1.20
2022-07-28T10:32:29.935Z,1.50
2022-07-28T10:35:03.008Z,1.08
2022-07-28T10:37:31.936Z,1.42
2022-07-28T10:40:06.498Z,1.52
2022-07-28T10:42:37.052Z,1.63
2022-07-28T10:45:05.198Z,1.25
2022-07-28T10:47:35.918Z,1.35
2022-07-28T10:50:04.467Z,1.48
2022-07-28T10:52:48.253Z,1.30
2022-07-28T10:55:35.307Z,1.95
2022-07-28T10:58:24.753Z,1.40
2022-07-28T11:00:56.652Z,1.50
2022-07-28T11:03:44.406Z,1.40
2022-07-28T11:06:24.333Z,1.40
2022-07-28T11:09:13.869Z,1.70
2022-07-28T11:11:50.520Z,1.13
2022-07-28T11:14:24.314Z,1.05
2022-07-28T11:17:15.825Z,1.30
2022-07-28T11:20:06.931Z,0.93
2022-07-28T11:22:34.156Z,1.55
2022-07-28T11:25:20.418Z,1.27
2022-07-28T11:27:52.200Z,1.42
2022-07-28T11:30:19.669Z,1.77
2022-07-28T11:32:55.092Z,1.10
2022-07-28T11:35:23.168Z,1.45
2022-07-28T11:38:02.286Z,1.48
2022-07-28T11:40:42.116Z,1.35
2022-07-28T11:43:32.025Z,1.52
2022-07-28T11:46:10.352Z,1.30
2022-07-28T11:48:40.284Z,1.73
2022-07-28T11:51:07.524Z,1.10
2022-07-28T11:53:41.041Z,1.08
2022-07-28T11:56:10.623Z,1.27
2022-07-28T11:58:38.410Z,1.50
2022-07-28T12:01:21.035Z,1.23
2022-07-28T12:03:55.286Z,1.35
2022-07-28T12:06:37.613Z,1.27
2022-07-28T12:09:10.561Z,1.30
2022-07-28T12:14:09.331Z,1.35
2022-07-28T12:16:38.840Z,1.60
2022-07-28T12:19:07.903Z,1.20
2022-07-28T12:21:49.621Z,1.40
2022-07-28T12:24:21.110Z,1.63
2022-07-28T12:26:50.296Z,1.50
2022-07-28T12:29:19.613Z,1.70
2022-07-28T12:31:59.843Z,1.42
2022-07-28T12:34:30.726Z,1.20
2022-07-28T12:37:03.197Z,1.17
2022-07-28T12:39:32.439Z,1.48
2022-07-28T12:42:10.231Z,1.52
2022-07-28T12:44:42.260Z,1.48
2022-07-28T12:47:12.715Z,1.10
2022-07-28T12:49:41.789Z,1.30
2022-07-28T12:52:22.197Z,1.48
2022-07-28T12:54:55.114Z,1.10
2022-07-28T12:57:48.866Z,1.85
2022-07-28T13:00:21.540Z,1.33
2022-07-28T13:02:50.108Z,1.35
2022-07-28T13:05:55.215Z,1.20
2022-07-28T13:08:23.754Z,1.48
2022-07-28T13:10:56.701Z,1.42
2022-07-28T13:13:24.626Z,1.25
2022-07-28T13:16:10.645Z,1.38
2022-07-28T13:18:44.751Z,1.65
2022-07-28T13:21:13.209Z,1.40
2022-07-28T13:23:40.488Z,1.20
2022-07-28T13:26:07.851Z,1.48
2022-07-28T13:28:35.395Z,1.50
2022-07-28T13:31:02.207Z,1.13
2022-07-28T13:33:29.282Z,1.25
2022-07-28T13:35:56.403Z,1.20
2022-07-28T13:38:23.669Z,1.20
2022-07-28T13:40:50.578Z,1.65
2022-07-28T13:43:17.494Z,1.35
2022-07-28T13:45:44.866Z,1.50
2022-07-28T13:48:11.813Z,1.60
2022-07-28T13:50:38.674Z,1.63
2022-07-28T13:53:06.579Z,1.30
2022-07-28T13:55:33.500Z,1.08
2022-07-28T13:58:01.097Z,1.75
2022-07-28T14:00:30.251Z,1.73
2022-07-28T14:02:58.183Z,2.00
2022-07-28T14:05:25.308Z,1.20
2022-07-28T14:08:00.079Z,1.67
2022-07-28T14:10:27.688Z,1.25
2022-07-28T14:12:54.835Z,1.02
2022-07-28T14:15:21.883Z,1.42
2022-07-28T14:17:49.545Z,1.60
2022-07-28T14:20:16.999Z,1.52
2022-07-28T14:22:44.658Z,2.65
2022-07-28T14:25:20.839Z,1.45
2022-07-28T14:27:48.760Z,1.48
2022-07-28T14:30:15.613Z,0.98
2022-07-28T14:32:42.445Z,1.05
2022-07-28T14:35:09.712Z,1.15
2022-07-28T14:38:04.789Z,1.50
2022-07-28T14:40:24.290Z,1.60
2022-07-28T14:42:51.170Z,1.40
2022-07-28T14:45:18.127Z,1.45
2022-07-28T14:47:45.626Z,1.52
2022-07-28T14:50:13.270Z,1.25
2022-07-28T14:52:40.295Z,1.42
2022-07-28T14:55:07.797Z,1.10
2022-07-28T14:57:50.348Z,1.15
2022-07-28T15:00:22.716Z,1.35
2022-07-28T15:02:51.883Z,1.40
2022-07-28T15:05:19.729Z,1.77
2022-07-28T15:07:49.387Z,1.27
2022-07-28T15:10:16.701Z,1.92
2022-07-28T15:12:43.821Z,1.40
2022-07-28T15:15:11.435Z,1.40
2022-07-28T15:17:38.354Z,1.15
2022-07-28T15:20:07.348Z,1.30
2022-07-28T15:22:34.954Z,1.45
2022-07-28T15:25:02.365Z,1.20
2022-07-28T15:27:33.191Z,1.30
2022-07-28T15:30:02.694Z,1.33
2022-07-28T15:32:33.220Z,1.30
2022-07-28T15:35:00.461Z,1.58
2022-07-28T15:37:28.136Z,1.13
2022-07-28T15:39:55.283Z,1.33
2022-07-28T15:42:22.266Z,1.42
2022-07-28T15:44:49.431Z,1.33
2022-07-28T15:47:16.653Z,1.38
2022-07-28T15:49:43.746Z,1.70
2022-07-28T15:52:10.722Z,1.20
2022-07-28T15:54:37.582Z,1.60
2022-07-28T15:57:04.732Z,1.95
2022-07-28T15:59:49.527Z,1.30
2022-07-28T16:02:18.454Z,1.52
2022-07-28T16:04:53.697Z,1.30
2022-07-28T16:07:25.669Z,1.58
2022-07-28T16:09:55.453Z,1.77
2022-07-28T16:12:24.917Z,1.35
2022-07-28T16:14:55.891Z,1.48
2022-07-28T16:17:24.451Z,1.50
2022-07-28T16:19:51.962Z,1.20
2022-07-28T16:22:19.579Z,1.20
2022-07-28T16:24:47.180Z,1.85
2022-07-28T16:27:14.862Z,1.50
2022-07-28T16:29:42.179Z,1.30
2022-07-28T16:32:09.507Z,1.17
2022-07-28T16:34:36.392Z,1.48
2022-07-28T16:37:05.739Z,1.60
2022-07-28T16:39:33.240Z,1.90
2022-07-28T16:42:00.127Z,1.33
2022-07-28T16:44:29.006Z,1.40
2022-07-28T16:46:56.352Z,1.27
2022-07-28T16:49:24.015Z,1.92
2022-07-28T16:51:51.104Z,1.92
2022-07-28T16:54:18.443Z,1.25
2022-07-28T16:56:45.966Z,1.90
2022-07-28T16:59:13.196Z,1.85
2022-07-28T17:01:45.571Z,5.55
2022-07-28T17:06:40.341Z,4.50
2022-07-28T17:09:07.288Z,3.15
2022-07-28T17:11:34.251Z,1.40
2022-07-28T17:14:01.208Z,3.63
2022-07-28T17:16:28.268Z,1.30
2022-07-28T17:18:55.197Z,2.13
2022-07-28T17:21:22.087Z,2.40
2022-07-28T17:23:49.054Z,1.42
2022-07-28T17:27:30.602Z,1.55
2022-07-28T17:29:02.710Z,4.20
2022-07-28T17:31:33.732Z,5.80
2022-07-28T17:34:01.249Z,9.25
2022-07-28T17:36:29.350Z,7.53
2022-07-28T17:38:56.293Z,8.88
2022-07-28T17:41:23.197Z,4.13
2022-07-28T17:43:50.054Z,6.35
2022-07-28T17:46:18.277Z,3.97
2022-07-28T17:48:48.460Z,5.10
2022-07-28T17:51:15.509Z,2.88
2022-07-28T17:53:43.728Z,1.70
2022-07-28T17:56:12.671Z,1.20
2022-07-28T17:58:39.587Z,1.63
2022-07-28T18:01:12.347Z,1.52
2022-07-28T18:06:24.585Z,1.60
2022-07-28T18:08:51.554Z,2.08
2022-07-28T18:11:18.810Z,1.45
2022-07-28T18:14:03.673Z,1.63
2022-07-28T18:16:31.626Z,1.20
2022-07-28T18:18:58.551Z,1.80
2022-07-28T18:21:26.686Z,1.50
2022-07-28T18:23:54.740Z,1.42
2022-07-28T18:26:22.110Z,1.27
2022-07-28T18:28:49.284Z,1.25
2022-07-28T18:31:16.257Z,1.40
2022-07-28T18:33:43.147Z,1.35
2022-07-28T18:36:10.328Z,1.20
2022-07-28T18:38:37.271Z,1.40
2022-07-28T18:41:04.171Z,1.88
2022-07-28T18:43:31.055Z,1.02
2022-07-28T18:45:58.052Z,1.38
2022-07-28T18:48:25.687Z,1.52
2022-07-28T18:50:52.818Z,1.67
2022-07-28T18:53:19.867Z,1.52
2022-07-28T18:55:46.716Z,1.50
2022-07-28T18:58:13.640Z,1.30
2022-07-28T19:00:40.991Z,1.88
2022-07-28T19:03:08.135Z,1.50
2022-07-28T19:05:36.660Z,1.90
2022-07-28T19:08:05.365Z,1.85
2022-07-28T19:10:32.601Z,1.40
2022-07-28T19:12:59.841Z,1.20
2022-07-28T19:15:26.834Z,1.55
2022-07-28T19:18:10.672Z,1.30
2022-07-28T19:20:42.464Z,1.40
2022-07-28T19:23:09.303Z,1.45
2022-07-28T19:25:37.687Z,1.15
2022-07-28T19:28:06.014Z,1.50
2022-07-28T19:30:33.404Z,2.40
2022-07-28T19:33:00.368Z,1.50
2022-07-28T19:35:27.307Z,1.67
2022-07-28T19:37:56.566Z,1.15
2022-07-28T19:40:25.290Z,1.80
2022-07-28T19:42:52.349Z,1.23
2022-07-28T19:45:19.371Z,1.92
2022-07-28T19:47:46.251Z,1.75
2022-07-28T19:50:18.041Z,1.50
2022-07-28T19:52:44.946Z,1.60
2022-07-28T19:55:12.815Z,1.92
2022-07-28T19:57:45.470Z,1.80
2022-07-28T20:00:14.438Z,1.50
2022-07-28T20:02:41.520Z,1.52
2022-07-28T20:05:09.366Z,1.58
2022-07-28T20:07:36.395Z,1.60
2022-07-28T20:10:03.767Z,2.70
2022-07-28T20:12:36.180Z,1.30
2022-07-28T20:17:40.326Z,1.60
2022-07-28T20:20:12.454Z,1.35
2022-07-28T20:22:41.240Z,1.47
2022-07-28T20:25:09.883Z,1.33
2022-07-28T20:27:40.459Z,1.73
2022-07-28T20:30:09.178Z,2.15
2022-07-28T20:32:37.493Z,1.10
2022-07-28T20:35:05.788Z,1.67
2022-07-28T20:37:36.420Z,1.65
2022-07-28T20:40:06.195Z,1.40
2022-07-28T20:42:33.498Z,1.75
2022-07-28T20:45:00.372Z,1.33
2022-07-28T20:47:28.187Z,2.05
2022-07-28T20:49:55.596Z,1.33
2022-07-28T20:52:23.546Z,1.42
2022-07-28T20:54:54.277Z,1.52
2022-07-28T20:57:22.127Z,1.73
2022-07-28T20:59:51.203Z,1.67
2022-07-28T21:02:23.029Z,1.38
2022-07-28T21:04:50.765Z,1.73
2022-07-28T21:08:00.418Z,1.70
2022-07-28T21:10:07.031Z,1.55
2022-07-28T21:12:34.585Z,1.75
2022-07-28T21:15:01.579Z,1.50
2022-07-28T21:17:28.558Z,1.60
2022-07-28T21:19:55.745Z,1.55
2022-07-28T21:22:22.993Z,1.83
2022-07-28T21:24:54.710Z,1.48
2022-07-28T21:27:22.481Z,1.38
2022-07-28T21:29:49.665Z,1.80
2022-07-28T21:32:16.845Z,1.30
2022-07-28T21:34:43.853Z,2.00
2022-07-28T21:37:12.811Z,1.65
2022-07-28T21:39:39.956Z,1.75
2022-07-28T21:42:08.542Z,1.45
2022-07-28T21:44:36.781Z,1.67
2022-07-28T21:47:04.198Z,1.60
2022-07-28T21:49:32.755Z,1.73
2022-07-28T21:52:00.038Z,1.60
2022-07-28T21:54:27.314Z,1.67
2022-07-28T21:56:54.429Z,1.40
2022-07-28T21:59:21.313Z,1.70
2022-07-28T22:01:48.431Z,1.40
2022-07-28T22:04:15.883Z,1.65
2022-07-28T22:06:44.731Z,1.27
2022-07-28T22:09:14.763Z,1.33
2022-07-28T22:11:42.285Z,1.38
2022-07-28T22:14:17.545Z,1.50
2022-07-28T22:16:44.622Z,1.42
2022-07-28T22:19:12.551Z,1.35
2022-07-28T22:21:39.674Z,1.45
2022-07-28T22:24:07.210Z,1.95
2022-07-28T22:26:34.049Z,1.63
2022-07-28T22:29:00.909Z,1.38
2022-07-28T22:31:27.944Z,1.30
2022-07-28T22:33:54.908Z,2.50
2022-07-28T22:36:21.722Z,1.52
2022-07-28T22:38:48.687Z,1.40
2022-07-28T22:41:17.761Z,2.15
2022-07-28T22:43:44.661Z,1.60
2022-07-28T22:46:11.666Z,1.70
2022-07-28T22:48:38.759Z,2.20
2022-07-28T22:51:11.961Z,1.50
2022-07-28T22:53:39.164Z,1.50
2022-07-28T22:56:06.335Z,2.10
2022-07-28T22:58:33.240Z,1.30
2022-07-28T23:01:00.245Z,1.50
2022-07-28T23:03:29.160Z,1.50
2022-07-28T23:06:03.188Z,1.45
2022-07-28T23:08:30.216Z,1.77
2022-07-28T23:10:57.427Z,1.60
2022-07-28T23:13:24.288Z,1.58
2022-07-28T23:15:51.231Z,1.83
2022-07-28T23:18:18.258Z,1.80
2022-07-28T23:20:45.416Z,1.25
2022-07-28T23:23:12.687Z,1.73
2022-07-28T23:25:42.986Z,1.60
2022-07-28T23:28:11.373Z,1.40
2022-07-28T23:30:38.471Z,1.27
2022-07-28T23:33:05.727Z,1.50
2022-07-28T23:35:36.868Z,1.88
2022-07-28T23:38:08.724Z,1.40
2022-07-28T23:40:36.368Z,2.25
2022-07-28T23:43:03.329Z,1.65
2022-07-28T23:45:30.610Z,2.22
2022-07-28T23:48:00.732Z,1.45
2022-07-28T23:50:28.816Z,1.30
2022-07-28T23:53:00.250Z,2.15
2022-07-28T23:55:27.307Z,1.33
2022-07-28T23:57:54.198Z,1.70
